Time;durP1;ratioP1;P1;durP2;ratioP2;P2;SDS_P1;SDS_P2;PMS_P1;PMS_P2;Temp;Humidity;BMP_temperature;BMP_pressure;BME280_temperature;BME280_humidity;BME280_pressure;Samples;Min_cycle;Max_cycle;Signal;HPM_P1;HPM_P2
2023/10/03 00:00:51;;;;;;;18.60;12.00;;;;;;;16.48;nan;99647.56;5041689;28;20440;-77
2023/10/03 00:03:17;;;;;;;12.93;9.10;;;;;;;16.47;nan;99651.19;5039658;28;20439;-78
2023/10/03 00:05:45;;;;;;;17.63;10.43;;;;;;;16.46;nan;99651.31;5041239;28;21103;-77
2023/10/03 00:08:10;;;;;;;15.90;10.27;;;;;;;16.42;nan;99653.41;5040040;28;20475;-76
2023/10/03 00:10:38;;;;;;;18.03;11.87;;;;;;;16.39;nan;99658.97;5039483;28;20474;-77
2023/10/03 00:13:08;;;;;;;17.80;11.50;;;;;;;16.34;nan;99653.22;5037517;28;20198;-81
2023/10/03 00:15:35;;;;;;;14.63;10.17;;;;;;;16.27;nan;99660.84;5041078;28;20459;-76
2023/10/03 00:18:01;;;;;;;17.83;11.70;;;;;;;16.22;nan;99659.56;5038653;28;20460;-82
2023/10/03 00:20:27;;;;;;;15.13;10.80;;;;;;;16.18;nan;99664.31;5039137;28;20464;-80
2023/10/03 00:22:53;;;;;;;17.43;11.27;;;;;;;16.13;nan;99648.78;5039416;28;20451;-78
2023/10/03 00:25:23;;;;;;;17.50;10.93;;;;;;;16.09;nan;99655.34;5039061;28;20514;-77
2023/10/03 00:27:55;;;;;;;14.90;10.80;;;;;;;16.07;nan;99653.81;5039239;28;20475;-82
2023/10/03 00:30:23;;;;;;;16.90;8.60;;;;;;;15.98;nan;99651.91;5040711;28;20855;-78
2023/10/03 00:32:53;;;;;;;16.87;9.50;;;;;;;15.94;nan;99654.00;5041098;28;20446;-76
2023/10/03 00:35:20;;;;;;;18.55;10.15;;;;;;;15.93;nan;99639.94;5040374;28;20481;-76
2023/10/03 00:37:46;;;;;;;23.95;9.80;;;;;;;15.93;nan;99647.88;5040297;28;20601;-78
2023/10/03 00:42:48;;;;;;;15.70;10.43;;;;;;;15.89;nan;99646.44;5037854;28;21182;-78
2023/10/03 00:45:21;;;;;;;14.52;9.63;;;;;;;15.87;nan;99644.88;5039236;28;20921;-75
2023/10/03 00:47:48;;;;;;;12.80;8.20;;;;;;;15.83;nan;99635.53;5036257;28;20282;-78
2023/10/03 00:50:20;;;;;;;15.43;10.18;;;;;;;15.78;nan;99637.72;5035616;28;20569;-78
2023/10/03 00:53:13;;;;;;;18.30;9.60;;;;;;;15.70;nan;99633.91;5035699;28;20204;-82
2023/10/03 00:55:43;;;;;;;14.73;10.73;;;;;;;15.67;nan;99636.78;5038403;28;21030;-81
2023/10/03 01:00:41;;;;;;;14.75;9.45;;;;;;;15.68;nan;99640.28;5040645;28;20205;-81
2023/10/03 01:03:24;;;;;;;12.63;9.02;;;;;;;15.64;nan;99630.94;5038873;28;20205;-76
2023/10/03 01:05:51;;;;;;;16.03;12.10;;;;;;;15.47;nan;99627.91;5039709;28;20227;-76
2023/10/03 01:08:17;;;;;;;14.25;10.27;;;;;;;15.41;nan;99632.84;5038682;28;20454;-76
2023/10/03 01:10:43;;;;;;;15.73;9.65;;;;;;;15.37;nan;99634.09;5054822;28;20746;-79
2023/10/03 01:13:11;;;;;;;15.00;9.00;;;;;;;15.35;nan;99636.00;5039094;28;20282;-79
2023/10/03 01:15:37;;;;;;;15.45;9.98;;;;;;;15.34;nan;99623.72;5034704;28;20524;-76
2023/10/03 01:18:03;;;;;;;14.53;9.50;;;;;;;15.36;nan;99632.38;5035713;28;20199;-79
2023/10/03 01:20:29;;;;;;;18.63;10.10;;;;;;;15.31;nan;99623.97;5039124;28;20480;-78
2023/10/03 01:22:56;;;;;;;13.25;9.52;;;;;;;15.20;nan;99619.59;5051742;28;21015;-77
2023/10/03 01:25:27;;;;;;;12.63;9.50;;;;;;;15.16;nan;99620.81;5038580;28;20205;-77
2023/10/03 01:27:56;;;;;;;17.02;8.25;;;;;;;15.13;nan;99621.91;5034569;28;20257;-81
2023/10/03 01:30:22;;;;;;;13.25;9.73;;;;;;;15.12;nan;99614.94;5030954;28;20289;-78
2023/10/03 01:32:56;;;;;;;15.27;9.00;;;;;;;15.08;nan;99618.78;5032143;28;20205;-80
2023/10/03 01:35:22;;;;;;;14.52;9.77;;;;;;;15.08;nan;99615.31;5024258;28;20204;-76
2023/10/03 01:37:50;;;;;;;14.07;8.38;;;;;;;15.09;nan;99604.59;5034421;28;20210;-79
2023/10/03 01:40:16;;;;;;;17.27;9.43;;;;;;;15.11;nan;99607.97;5035332;28;20524;-77
2023/10/03 01:42:46;;;;;;;15.80;9.43;;;;;;;15.10;nan;99602.81;5032760;28;20202;-77
2023/10/03 01:45:23;;;;;;;15.55;8.50;;;;;;;15.08;nan;99600.28;5034253;28;20254;-77
2023/10/03 01:47:51;;;;;;;14.73;9.68;;;;;;;15.07;nan;99589.81;5034027;28;20213;-76
2023/10/03 01:50:21;;;;;;;17.90;10.10;;;;;;;15.03;nan;99600.66;5033653;28;20300;-78
2023/10/03 01:52:48;;;;;;;16.95;9.25;;;;;;;15.01;nan;99593.81;5035710;28;20205;-77
2023/10/03 01:55:17;;;;;;;14.70;8.52;;;;;;;15.02;nan;99606.91;5032931;28;20217;-76
2023/10/03 01:57:45;;;;;;;12.73;8.10;;;;;;;14.99;nan;99598.41;5035042;28;20260;-77
2023/10/03 02:00:25;;;;;;;11.90;8.57;;;;;;;14.98;nan;99584.31;5034391;28;20243;-80
2023/10/03 02:02:56;;;;;;;10.75;7.95;;;;;;;14.97;nan;99587.09;5050150;28;20206;-76
2023/10/03 02:05:26;;;;;;;15.55;7.65;;;;;;;14.95;nan;99591.66;5033273;28;20192;-76
2023/10/03 02:07:54;;;;;;;10.23;7.22;;;;;;;14.95;nan;99586.38;5033768;28;20300;-77
2023/10/03 02:10:19;;;;;;;12.57;7.65;;;;;;;14.92;nan;99582.19;5034530;28;20343;-77
2023/10/03 02:12:48;;;;;;;11.90;8.03;;;;;;;14.90;nan;99584.09;5038744;28;20213;-76
2023/10/03 02:15:23;;;;;;;16.20;7.90;;;;;;;14.86;nan;99580.03;5035486;28;20213;-75
2023/10/03 02:17:50;;;;;;;10.52;8.25;;;;;;;14.86;nan;99579.22;5035920;28;20199;-76
2023/10/03 02:20:20;;;;;;;12.13;7.70;;;;;;;14.91;nan;99571.75;5040015;28;20244;-80
2023/10/03 02:22:55;;;;;;;12.88;7.38;;;;;;;14.94;nan;99582.06;5040374;28;20222;-78
2023/10/03 02:25:27;;;;;;;11.38;7.32;;;;;;;14.93;nan;99585.66;5039930;28;20593;-80
2023/10/03 02:27:54;;;;;;;11.85;8.35;;;;;;;14.93;nan;99589.16;5040137;28;20279;-79
2023/10/03 02:30:23;;;;;;;12.23;7.97;;;;;;;14.97;nan;99589.75;5039987;28;20204;-75
2023/10/03 02:32:52;;;;;;;12.35;9.00;;;;;;;14.96;nan;99593.34;5037051;28;20206;-77
2023/10/03 02:35:21;;;;;;;15.68;8.77;;;;;;;14.92;nan;99584.00;5039764;28;20755;-80
2023/10/03 02:37:47;;;;;;;10.32;7.60;;;;;;;14.86;nan;99589.78;5038999;28;20331;-77
2023/10/03 02:40:21;;;;;;;14.43;7.85;;;;;;;14.77;nan;99586.06;5036582;28;20242;-77
2023/10/03 02:42:51;;;;;;;8.65;7.40;;;;;;;14.69;nan;99585.84;5040344;28;20209;-76
2023/10/03 02:45:22;;;;;;;9.38;6.45;;;;;;;14.65;nan;99592.38;5037854;28;20192;-78
2023/10/03 02:47:56;;;;;;;14.95;7.50;;;;;;;14.61;nan;99594.44;5037846;28;20203;-76
2023/10/03 02:50:23;;;;;;;13.55;7.38;;;;;;;14.56;nan;99588.66;5031297;28;20197;-76
2023/10/03 02:52:56;;;;;;;12.75;6.40;;;;;;;14.49;nan;99603.28;5036812;28;20333;-81
2023/10/03 02:55:22;;;;;;;13.30;6.50;;;;;;;14.46;nan;99595.63;5037044;28;20205;-80
2023/10/03 02:57:49;;;;;;;13.50;8.87;;;;;;;14.46;nan;99595.63;5038792;28;20206;-76
2023/10/03 03:00:15;;;;;;;10.05;7.03;;;;;;;14.51;nan;99604.03;5037282;28;20203;-78
2023/10/03 03:02:46;;;;;;;9.13;6.70;;;;;;;14.54;nan;99598.53;5029776;28;20698;-80
2023/10/03 03:05:15;;;;;;;11.73;8.70;;;;;;;14.57;nan;99591.16;5035628;28;20203;-81
2023/10/03 03:07:46;;;;;;;11.93;8.10;;;;;;;14.62;nan;99596.09;5037430;28;21075;-77
2023/10/03 03:10:14;;;;;;;9.68;7.45;;;;;;;14.68;nan;99592.13;5034581;28;20191;-75
2023/10/03 03:12:43;;;;;;;13.88;9.40;;;;;;;14.68;nan;99592.13;5038548;28;20700;-78
2023/10/03 03:15:17;;;;;;;14.68;8.50;;;;;;;14.68;nan;99590.31;5037198;28;20256;-79
2023/10/03 03:17:44;;;;;;;10.82;7.15;;;;;;;14.72;nan;99585.63;5035574;28;20300;-76
2023/10/03 03:20:24;;;;;;;13.35;8.10;;;;;;;14.74;nan;99584.53;5037950;28;20199;-76
2023/10/03 03:22:53;;;;;;;10.75;7.15;;;;;;;14.79;nan;99597.38;5039226;28;20198;-80
2023/10/03 03:25:35;;;;;;;13.57;9.55;;;;;;;14.81;nan;99598.09;5039349;28;20229;-77
2023/10/03 03:28:00;;;;;;;9.55;7.10;;;;;;;14.76;nan;99587.88;5061852;22;20604;-81
2023/10/03 03:30:33;;;;;;;9.18;6.90;;;;;;;14.80;nan;99591.97;5039285;28;20213;-80
2023/10/03 03:32:59;;;;;;;8.95;6.95;;;;;;;14.80;nan;99591.97;5043380;28;20692;-80
2023/10/03 03:35:26;;;;;;;11.95;8.98;;;;;;;14.82;nan;99589.19;5043025;28;20877;-79
2023/10/03 03:37:57;;;;;;;13.55;7.38;;;;;;;14.82;nan;99590.03;5044805;28;20205;-79
2023/10/03 03:40:31;;;;;;;9.55;7.57;;;;;;;14.85;nan;99582.81;5028275;28;20198;-79
2023/10/03 03:42:58;;;;;;;15.10;8.90;;;;;;;14.86;nan;99584.50;5028051;28;20210;-80
2023/10/03 03:45:26;;;;;;;15.30;8.85;;;;;;;14.89;nan;99586.91;5028902;28;20202;-80
2023/10/03 03:47:52;;;;;;;10.30;7.97;;;;;;;14.91;nan;99587.63;5025518;28;20205;-80
2023/10/03 03:50:18;;;;;;;11.52;7.20;;;;;;;14.93;nan;99588.31;5026827;28;20188;-80
2023/10/03 03:52:43;;;;;;;10.63;6.90;;;;;;;14.94;nan;99580.25;5024974;28;20217;-80
2023/10/03 03:55:11;;;;;;;13.90;7.77;;;;;;;14.96;nan;99588.03;5020523;28;20209;-80
2023/10/03 03:57:36;;;;;;;11.32;7.68;;;;;;;14.93;nan;99589.16;5028008;28;20205;-80
2023/10/03 04:00:11;;;;;;;13.43;7.20;;;;;;;14.92;nan;99576.06;5029836;28;20210;-80
2023/10/03 04:02:38;;;;;;;11.23;7.72;;;;;;;14.87;nan;99573.78;5031549;28;20206;-80
2023/10/03 04:05:07;;;;;;;12.03;8.30;;;;;;;14.89;nan;99586.91;5032415;28;20517;-79
2023/10/03 04:07:34;;;;;;;10.23;6.95;;;;;;;14.88;nan;99578.13;5037629;28;20464;-79
2023/10/03 04:10:00;;;;;;;12.15;7.78;;;;;;;14.89;nan;99584.25;5036321;28;20221;-79
2023/10/03 04:12:26;;;;;;;13.60;8.17;;;;;;;14.89;nan;99579.78;5037805;28;20199;-79
2023/10/03 04:14:52;;;;;;;9.23;6.80;;;;;;;14.91;nan;99584.97;5039732;28;20467;-79
2023/10/03 04:17:19;;;;;;;12.07;8.23;;;;;;;14.93;nan;99583.00;5032964;28;20462;-79
2023/10/03 04:19:45;;;;;;;11.32;7.30;;;;;;;14.95;nan;99575.81;5024342;28;20214;-79
2023/10/03 04:22:11;;;;;;;10.68;7.80;;;;;;;14.97;nan;99573.88;5025996;28;20210;-79
2023/10/03 04:24:37;;;;;;;9.93;6.57;;;;;;;15.01;nan;99575.28;5028721;28;20186;-79
2023/10/03 04:27:03;;;;;;;14.40;7.90;;;;;;;15.02;nan;99579.63;5026798;28;20496;-79
2023/10/03 04:29:28;;;;;;;12.85;7.05;;;;;;;15.03;nan;99579.47;5025536;28;20240;-79
2023/10/03 04:31:54;;;;;;;14.77;8.07;;;;;;;15.06;nan;99586.31;5023595;28;20203;-80
2023/10/03 04:34:20;;;;;;;12.63;7.40;;;;;;;15.10;nan;99579.00;5024499;28;20191;-79
2023/10/03 04:36:47;;;;;;;10.02;7.43;;;;;;;15.16;nan;99581.13;5025828;28;20520;-81
2023/10/03 04:39:13;;;;;;;11.55;6.40;;;;;;;15.18;nan;99580.03;5025265;28;20206;-80
2023/10/03 04:41:43;;;;;;;11.63;6.40;;;;;;;15.21;nan;99579.78;5026430;28;20191;-80
2023/10/03 04:44:14;;;;;;;11.93;7.60;;;;;;;15.22;nan;99576.16;5026088;28;20277;-80
2023/10/03 04:46:39;;;;;;;13.98;6.43;;;;;;;15.26;nan;99580.22;5026357;28;20289;-80
2023/10/03 04:49:07;;;;;;;8.80;5.80;;;;;;;15.30;nan;99579.97;5028223;28;20244;-80
2023/10/03 04:51:35;;;;;;;8.32;5.53;;;;;;;15.34;nan;99582.25;5028296;28;20211;-80
2023/10/03 04:54:01;;;;;;;9.52;5.72;;;;;;;15.36;nan;99576.81;5022696;28;20214;-80
2023/10/03 04:56:26;;;;;;;11.50;7.90;;;;;;;15.35;nan;99578.63;5025118;28;20602;-80
2023/10/03 04:58:52;;;;;;;9.30;5.77;;;;;;;15.31;nan;99579.84;5023461;28;20223;-80
2023/10/03 05:01:18;;;;;;;12.18;6.55;;;;;;;15.25;nan;99578.53;5024782;28;20247;-80
2023/10/03 05:03:43;;;;;;;12.15;6.95;;;;;;;15.18;nan;99582.69;5024113;28;21005;-80
2023/10/03 05:06:11;;;;;;;8.60;6.00;;;;;;;15.10;nan;99589.59;5022536;28;20338;-81
2023/10/03 05:08:37;;;;;;;9.88;6.85;;;;;;;15.00;nan;99578.91;5021607;28;20273;-81
2023/10/03 05:11:03;;;;;;;9.10;6.05;;;;;;;14.94;nan;99585.53;5019065;28;20677;-80
2023/10/03 05:13:29;;;;;;;10.82;7.28;;;;;;;14.92;nan;99578.69;5022015;28;20816;-80
2023/10/03 05:15:54;;;;;;;12.43;5.93;;;;;;;14.93;nan;99583.88;5020174;28;20186;-80
2023/10/03 05:18:20;;;;;;;11.43;6.60;;;;;;;15.01;nan;99583.22;5022029;28;20245;-80
2023/10/03 05:20:45;;;;;;;9.20;5.33;;;;;;;15.16;nan;99592.53;5019363;28;20206;-80
2023/10/03 05:23:14;;;;;;;9.60;5.23;;;;;;;15.32;nan;99583.34;5021810;28;20203;-80
2023/10/03 05:25:42;;;;;;;7.57;4.60;;;;;;;15.47;nan;99587.31;5018686;28;20273;-80
2023/10/03 05:28:10;;;;;;;16.05;5.90;;;;;;;15.56;nan;99586.56;5019139;28;20213;-80
2023/10/03 05:30:38;;;;;;;10.70;6.22;;;;;;;15.58;nan;99589.94;5018295;28;20714;-80
2023/10/03 05:33:06;;;;;;;9.57;6.85;;;;;;;15.56;nan;99599.81;5022005;28;20205;-80
2023/10/03 05:35:32;;;;;;;6.70;5.50;;;;;;;15.52;nan;99595.72;5021938;28;20215;-80
2023/10/03 05:37:57;;;;;;;7.22;5.43;;;;;;;15.52;nan;99593.06;5019552;28;20671;-80
2023/10/03 05:40:23;;;;;;;11.13;5.97;;;;;;;15.57;nan;99596.19;5020523;28;20686;-80
2023/10/03 05:42:49;;;;;;;7.67;5.93;;;;;;;15.64;nan;99588.56;5019178;28;20258;-80
2023/10/03 05:45:15;;;;;;;5.73;4.73;;;;;;;15.79;nan;99594.38;5024243;28;20228;-80
2023/10/03 05:47:45;;;;;;;9.18;5.75;;;;;;;16.08;nan;99592.72;5022239;28;20197;-80
2023/10/03 05:50:22;;;;;;;6.88;4.45;;;;;;;16.51;nan;99596.06;5022719;28;20235;-80
2023/10/03 05:52:48;;;;;;;6.32;4.22;;;;;;;16.92;nan;99595.03;5023867;28;20708;-81
2023/10/03 05:55:14;;;;;;;8.30;4.33;;;;;;;17.30;nan;99587.22;5022373;28;20254;-80
2023/10/03 05:57:42;;;;;;;5.03;4.17;;;;;;;17.66;nan;99591.78;5025179;28;20476;-80
2023/10/03 06:00:17;;;;;;;7.67;4.20;;;;;;;18.04;nan;99589.19;5027542;28;20473;-80
2023/10/03 06:02:47;;;;;;;7.73;4.40;;;;;;;18.37;nan;99593.09;5026350;28;20468;-80
2023/10/03 06:05:15;;;;;;;8.83;4.57;;;;;;;18.67;nan;99591.94;5032323;28;20457;-80
2023/10/03 06:07:41;;;;;;;6.37;4.27;;;;;;;18.94;nan;99600.88;5033543;28;20460;-80
2023/10/03 06:10:10;;;;;;;6.37;3.97;;;;;;;19.14;nan;99593.56;5029035;28;20982;-80
2023/10/03 06:12:36;;;;;;;4.80;3.70;;;;;;;19.32;nan;99606.88;5031849;28;20472;-81
2023/10/03 06:15:04;;;;;;;4.20;3.80;;;;;;;19.50;nan;99598.88;5026664;28;20458;-81
2023/10/03 06:17:31;;;;;;;4.60;4.17;;;;;;;19.61;nan;99609.28;5029405;28;20490;-82
2023/10/03 06:19:57;;;;;;;5.13;4.10;;;;;;;19.70;nan;99604.88;5026518;28;20554;-81
2023/10/03 06:22:22;;;;;;;6.67;3.53;;;;;;;19.79;nan;99609.25;5025588;28;20548;-80
2023/10/03 06:24:49;;;;;;;6.97;4.80;;;;;;;19.84;nan;99607.78;5028102;28;20219;-80
2023/10/03 06:27:14;;;;;;;5.53;3.77;;;;;;;19.91;nan;99608.00;5026214;28;20219;-80
2023/10/03 06:29:41;;;;;;;5.07;3.93;;;;;;;19.98;nan;99613.53;5028837;28;20473;-80
2023/10/03 06:32:07;;;;;;;6.53;3.33;;;;;;;20.09;nan;99603.44;5030157;28;20646;-80
2023/10/03 06:34:33;;;;;;;3.90;3.53;;;;;;;20.23;nan;99602.00;5024426;28;20438;-80
2023/10/03 06:36:59;;;;;;;4.67;4.20;;;;;;;20.26;nan;99609.69;5028079;28;20432;-81
2023/10/03 06:39:24;;;;;;;5.00;4.30;;;;;;;20.24;nan;99602.84;5023267;28;20215;-80
2023/10/03 06:41:55;;;;;;;6.50;3.70;;;;;;;20.23;nan;99609.19;5025771;28;20444;-80
2023/10/03 06:44:24;;;;;;;5.10;4.23;;;;;;;20.22;nan;99604.81;5027684;28;20185;-80
2023/10/03 06:46:49;;;;;;;7.10;3.90;;;;;;;20.20;nan;99610.31;5030276;28;20464;-80
2023/10/03 06:49:17;;;;;;;5.57;4.27;;;;;;;20.23;nan;99603.84;5028882;28;20455;-80
2023/10/03 06:51:46;;;;;;;4.93;4.17;;;;;;;20.29;nan;99604.03;5031597;28;20193;-80
2023/10/03 06:54:12;;;;;;;5.43;4.00;;;;;;;20.30;nan;99607.53;5030664;28;20462;-80
2023/10/03 06:56:37;;;;;;;5.90;4.23;;;;;;;20.30;nan;99605.69;5028898;28;20892;-80
2023/10/03 06:59:04;;;;;;;5.70;4.70;;;;;;;20.33;nan;99607.19;5026085;28;20578;-80
2023/10/03 07:01:29;;;;;;;6.47;5.60;;;;;;;20.43;nan;99602.56;5029831;28;20202;-81
2023/10/03 07:03:56;;;;;;;5.70;3.40;;;;;;;20.64;nan;99599.50;5031876;28;20423;-80
2023/10/03 07:06:22;;;;;;;9.18;5.00;;;;;;;20.92;nan;99601.91;5028664;28;20499;-81
2023/10/03 07:08:51;;;;;;;5.63;4.27;;;;;;;21.18;nan;99599.09;5027575;28;20210;-81
2023/10/03 07:11:17;;;;;;;4.17;3.77;;;;;;;21.41;nan;99600.16;5028720;28;20472;-80
2023/10/03 07:13:43;;;;;;;10.30;4.60;;;;;;;21.64;nan;99597.59;5025139;28;20556;-81
2023/10/03 07:16:09;;;;;;;5.57;5.00;;;;;;;21.87;nan;99604.91;5026094;28;20500;-81
2023/10/03 07:18:35;;;;;;;5.10;3.80;;;;;;;22.06;nan;99595.66;5032277;28;20471;-81
2023/10/03 07:21:04;;;;;;;5.33;3.57;;;;;;;22.22;nan;99601.00;5028418;28;20466;-81
2023/10/03 07:23:30;;;;;;;4.20;3.50;;;;;;;22.37;nan;99608.31;5027520;28;20540;-81
2023/10/03 07:25:56;;;;;;;4.87;3.83;;;;;;;22.49;nan;99612.25;5027826;28;20534;-81
2023/10/03 07:28:21;;;;;;;7.37;4.43;;;;;;;22.62;nan;99606.34;5029569;28;20222;-81
2023/10/03 07:30:46;;;;;;;7.37;4.00;;;;;;;22.71;nan;99607.97;5030259;28;20195;-81
2023/10/03 07:33:12;;;;;;;4.33;3.93;;;;;;;22.79;nan;99607.94;5027719;28;20321;-81
2023/10/03 07:35:42;;;;;;;7.40;4.32;;;;;;;22.88;nan;99612.22;5029719;28;21042;-79
2023/10/03 07:38:11;;;;;;;5.20;4.50;;;;;;;22.95;nan;99615.88;5026323;28;20237;-80
2023/10/03 07:40:38;;;;;;;7.07;4.60;;;;;;;23.03;nan;99609.63;5027569;28;20457;-81
2023/10/03 07:43:09;;;;;;;6.80;4.97;;;;;;;23.09;nan;99616.97;5030870;28;20459;-80
2023/10/03 07:45:36;;;;;;;4.27;3.87;;;;;;;23.16;nan;99615.22;5024907;28;20450;-80
2023/10/03 07:48:05;;;;;;;5.80;4.07;;;;;;;23.23;nan;99615.38;5025954;28;20416;-81
2023/10/03 07:50:31;;;;;;;5.73;4.20;;;;;;;23.31;nan;99617.16;5032444;28;20504;-80
2023/10/03 07:52:59;;;;;;;4.50;3.40;;;;;;;23.37;nan;99621.78;5031996;28;20432;-80
2023/10/03 07:55:25;;;;;;;4.87;4.13;;;;;;;23.57;nan;99624.78;5052223;28;20523;-80
2023/10/03 07:57:54;;;;;;;5.93;3.67;;;;;;;24.25;nan;99626.47;5031650;28;20517;-81
2023/10/03 08:00:21;;;;;;;6.37;4.10;;;;;;;25.16;nan;99616.22;5027645;28;21143;-80
2023/10/03 08:02:49;;;;;;;5.30;4.47;;;;;;;25.86;nan;99618.28;5033746;28;20452;-81
2023/10/03 08:05:16;;;;;;;4.13;3.60;;;;;;;26.48;nan;99615.50;5032923;28;20944;-81
2023/10/03 08:07:47;;;;;;;4.93;4.33;;;;;;;27.42;nan;99616.63;5031257;28;20446;-80
2023/10/03 08:10:14;;;;;;;5.20;4.00;;;;;;;27.91;nan;99609.97;5031850;28;20457;-80
2023/10/03 08:12:40;;;;;;;5.17;3.63;;;;;;;28.35;nan;99603.00;5032135;28;20445;-81
2023/10/03 08:15:17;;;;;;;6.50;4.97;;;;;;;28.76;nan;99604.53;5027351;28;20457;-81
2023/10/03 08:17:48;;;;;;;5.20;3.93;;;;;;;29.17;nan;99605.16;5034201;28;20976;-81
2023/10/03 08:20:18;;;;;;;4.20;3.80;;;;;;;29.39;nan;99602.91;5032565;28;20470;-82
2023/10/03 08:22:50;;;;;;;4.83;3.40;;;;;;;29.65;nan;99605.41;5034011;28;20469;-82
2023/10/03 08:25:25;;;;;;;5.00;4.20;;;;;;;29.89;nan;99602.88;5035267;28;20481;-80
2023/10/03 08:27:52;;;;;;;3.83;3.30;;;;;;;30.04;nan;99614.19;5035355;28;20456;-81
2023/10/03 08:30:28;;;;;;;5.90;5.07;;;;;;;30.14;nan;99611.78;5034700;28;20691;-80
2023/10/03 08:33:05;;;;;;;5.30;3.90;;;;;;;30.37;nan;99615.72;5039811;28;20938;-81
2023/10/03 08:35:34;;;;;;;5.43;3.77;;;;;;;30.37;nan;99615.72;5028762;28;20440;-82
2023/10/03 08:38:12;;;;;;;4.63;4.00;;;;;;;30.53;nan;99612.38;5032336;28;20440;-83
2023/10/03 08:40:39;;;;;;;6.77;3.30;;;;;;;30.60;nan;99625.88;5035582;28;20440;-81
2023/10/03 08:43:09;;;;;;;4.10;3.57;;;;;;;30.75;nan;99629.00;5030700;28;20802;-82
2023/10/03 08:45:43;;;;;;;3.63;3.33;;;;;;;30.72;nan;99624.03;5028839;28;20480;-81
2023/10/03 08:48:15;;;;;;;3.57;3.27;;;;;;;30.80;nan;99631.03;5029135;28;20468;-81
2023/10/03 08:50:51;;;;;;;4.43;4.00;;;;;;;30.93;nan;99620.03;5031979;28;21008;-83
2023/10/03 08:53:27;;;;;;;5.87;5.00;;;;;;;31.02;nan;99623.22;5026606;28;20440;-81
2023/10/03 08:55:58;;;;;;;3.50;3.20;;;;;;;31.11;nan;99619.16;5024568;28;20866;-82
2023/10/03 08:58:25;;;;;;;4.90;4.37;;;;;;;31.19;nan;99623.38;5024629;28;20484;-82
2023/10/03 09:00:58;;;;;;;6.47;4.40;;;;;;;31.24;nan;99615.38;5030701;28;20484;-81
2023/10/03 09:03:29;;;;;;;4.03;3.53;;;;;;;31.15;nan;99627.63;5029787;28;20437;-82
2023/10/03 09:05:58;;;;;;;7.73;3.83;;;;;;;31.00;nan;99619.91;5029953;28;20465;-81
2023/10/03 09:08:25;;;;;;;9.33;4.00;;;;;;;30.73;nan;99633.84;5027696;28;20461;-82
2023/10/03 09:10:52;;;;;;;7.57;4.67;;;;;;;30.44;nan;99627.31;5028993;28;20819;-81
2023/10/03 09:13:26;;;;;;;7.90;4.40;;;;;;;30.10;nan;99634.94;5030728;28;20452;-81
2023/10/03 09:16:07;;;;;;;6.90;4.33;;;;;;;29.80;nan;99621.28;5030799;28;20473;-81
2023/10/03 09:18:43;;;;;;;5.50;4.57;;;;;;;29.45;nan;99626.34;5029314;28;20453;-81
2023/10/03 09:21:16;;;;;;;4.37;3.90;;;;;;;29.14;nan;99630.75;5029858;28;21002;-81
2023/10/03 09:24:01;;;;;;;5.53;4.23;;;;;;;28.85;nan;99618.63;5027013;28;20453;-82
2023/10/03 09:26:45;;;;;;;6.07;3.90;;;;;;;28.63;nan;99628.91;5028363;28;20470;-81
2023/10/03 09:29:18;;;;;;;4.00;3.23;;;;;;;28.39;nan;99620.44;5038450;23;21036;-91
2023/10/03 09:31:48;;;;;;;4.37;3.97;;;;;;;28.15;nan;99616.56;5031477;28;20535;-90
2023/10/03 09:34:21;;;;;;;4.67;3.67;;;;;;;28.05;nan;99616.19;5031231;28;20526;-89
2023/10/03 09:36:48;;;;;;;7.40;4.60;;;;;;;27.88;nan;99623.09;5028849;28;20546;-92
2023/10/03 09:39:22;;;;;;;5.90;4.30;;;;;;;27.68;nan;99614.94;5032373;28;20497;-90
2023/10/03 09:41:59;;;;;;;5.00;4.00;;;;;;;27.49;nan;99614.78;5038283;28;20808;-91
2023/10/03 09:44:29;;;;;;;6.07;5.00;;;;;;;27.39;nan;99614.34;5033839;28;20459;-90
2023/10/03 09:47:04;;;;;;;7.20;4.50;;;;;;;27.33;nan;99616.00;5030271;28;20474;-90
2023/10/03 09:49:43;;;;;;;5.30;4.30;;;;;;;27.32;nan;99614.34;5031556;28;20459;-90
2023/10/03 09:52:25;;;;;;;5.60;3.60;;;;;;;27.41;nan;99616.81;5029489;28;20452;-89
2023/10/03 09:54:54;;;;;;;6.83;4.77;;;;;;;27.50;nan;99613.72;5028369;28;20467;-89
2023/10/03 09:57:36;;;;;;;5.37;4.03;;;;;;;27.62;nan;99623.88;5034098;28;20440;-89
2023/10/03 10:00:23;;;;;;;5.87;4.10;;;;;;;27.62;nan;99623.88;5032630;28;20489;-90
2023/10/03 10:02:48;;;;;;;6.00;3.80;;;;;;;27.45;nan;99624.31;5038709;28;20538;-89
2023/10/03 10:05:22;;;;;;;6.40;4.20;;;;;;;27.27;nan;99627.59;5030665;28;20460;-89
2023/10/03 10:08:13;;;;;;;7.03;4.47;;;;;;;27.09;nan;99628.19;5027873;28;20455;-89
2023/10/03 10:11:02;;;;;;;9.10;4.57;;;;;;;26.91;nan;99628.75;5031096;28;20925;-89
2023/10/03 10:13:41;;;;;;;9.37;3.83;;;;;;;26.81;nan;99627.47;5035309;28;20508;-90
2023/10/03 10:16:20;;;;;;;7.80;4.67;;;;;;;26.88;nan;99639.13;5035630;28;20907;-90
2023/10/03 10:18:46;;;;;;;6.10;4.57;;;;;;;27.06;nan;99636.69;5038357;28;20483;-90
2023/10/03 10:21:32;;;;;;;6.97;5.30;;;;;;;27.15;nan;99646.22;5036310;28;21143;-88
2023/10/03 10:24:27;;;;;;;6.30;4.90;;;;;;;27.31;nan;99644.22;5035080;28;20211;-90
2023/10/03 10:30:13;;;;;;;6.03;5.10;;;;;;;27.54;nan;99649.22;5020695;28;20496;-89
2023/10/03 10:33:33;;;;;;;8.17;5.40;;;;;;;27.53;nan;99651.09;5029263;28;20945;-91
2023/10/03 10:36:07;;;;;;;6.87;4.77;;;;;;;27.69;nan;99660.63;5026776;28;20439;-90
2023/10/03 10:38:32;;;;;;;8.20;5.03;;;;;;;27.95;nan;99651.72;5027502;28;20499;-90
2023/10/03 10:44:21;;;;;;;6.57;4.83;;;;;;;28.38;nan;99656.63;5026964;28;20241;-89
2023/10/03 10:47:12;;;;;;;5.50;4.60;;;;;;;28.47;nan;99656.44;5026918;28;20468;-89
2023/10/03 10:49:48;;;;;;;6.73;4.30;;;;;;;28.47;nan;99656.44;5026631;28;20987;-90
2023/10/03 10:52:17;;;;;;;9.23;4.77;;;;;;;28.41;nan;99653.50;5024525;28;20551;-89
2023/10/03 10:54:44;;;;;;;10.33;4.97;;;;;;;28.27;nan;99656.44;5023784;28;21003;-88
2023/10/03 10:57:11;;;;;;;6.93;4.90;;;;;;;28.17;nan;99648.78;5021721;28;20454;-92
2023/10/03 10:59:43;;;;;;;8.70;4.93;;;;;;;28.10;nan;99654.19;5027722;28;20487;-89
2023/10/03 11:02:26;;;;;;;7.53;4.63;;;;;;;28.00;nan;99649.25;5025353;28;20456;-89
2023/10/03 11:04:59;;;;;;;8.70;5.57;;;;;;;27.84;nan;99643.41;5029074;28;21040;-89
2023/10/03 11:07:31;;;;;;;7.33;5.13;;;;;;;27.65;nan;99647.75;5033280;28;21202;-88
2023/10/03 11:10:17;;;;;;;10.87;5.80;;;;;;;27.51;nan;99650.44;5032237;28;20498;-90
2023/10/03 11:12:56;;;;;;;7.87;5.33;;;;;;;27.45;nan;99653.97;5028368;28;21035;-91
2023/10/03 11:15:22;;;;;;;6.90;5.33;;;;;;;27.42;nan;99658.97;5023466;28;20509;-90
2023/10/03 11:17:57;;;;;;;5.70;4.10;;;;;;;27.30;nan;99650.63;5026294;28;20596;-90
2023/10/03 11:20:32;;;;;;;6.43;5.00;;;;;;;27.25;nan;99653.97;5026054;28;21007;-91
2023/10/03 11:22:58;;;;;;;8.40;5.40;;;;;;;27.18;nan;99655.81;5026718;28;20466;-92
2023/10/03 11:25:31;;;;;;;6.93;5.87;;;;;;;27.12;nan;99654.75;5029545;28;20451;-90
2023/10/03 11:28:05;;;;;;;6.50;5.47;;;;;;;27.04;nan;99649.53;5030282;28;20202;-90
2023/10/03 11:30:31;;;;;;;7.40;4.97;;;;;;;26.97;nan;99653.25;5023919;28;20472;-90
2023/10/03 11:33:01;;;;;;;5.80;5.20;;;;;;;26.97;nan;99659.47;5035562;28;20478;-92
2023/10/03 11:35:26;;;;;;;7.30;5.07;;;;;;;27.06;nan;99658.25;5030423;28;20312;-91
2023/10/03 11:37:55;;;;;;;8.63;5.00;;;;;;;27.15;nan;99662.41;5048037;28;20505;-90
2023/10/03 11:40:27;;;;;;;6.80;5.20;;;;;;;27.24;nan;99664.94;5047805;28;20214;-91
2023/10/03 11:43:03;;;;;;;8.60;4.10;;;;;;;27.43;nan;99666.84;5038627;28;20495;-91
2023/10/03 11:45:30;;;;;;;9.27;5.43;;;;;;;27.55;nan;99657.09;5034787;28;20512;-92
2023/10/03 11:48:17;;;;;;;9.00;6.40;;;;;;;27.61;nan;99660.84;5029939;28;20491;-90
2023/10/03 11:51:00;;;;;;;;;;;;;;;;;;;;;
2023/10/03 11:53:41;;;;;;;9.10;5.80;;;;;;;27.86;nan;99663.75;5024673;28;21272;-91
2023/10/03 11:56:31;;;;;;;5.93;5.07;;;;;;;27.93;nan;99670.00;5025977;28;20558;-91
2023/10/03 11:59:07;;;;;;;5.13;4.10;;;;;;;28.03;nan;99675.00;5024288;28;20460;-91
2023/10/03 12:01:35;;;;;;;7.17;5.87;;;;;;;28.03;nan;99691.19;5023333;28;20487;-91
2023/10/03 12:04:03;;;;;;;5.83;4.57;;;;;;;27.90;nan;99692.03;5026711;28;20486;-90
2023/10/03 12:06:42;;;;;;;7.03;5.17;;;;;;;27.77;nan;99692.00;5026074;28;20474;-90
2023/10/03 12:09:13;;;;;;;7.53;4.77;;;;;;;27.67;nan;99694.25;5025742;28;20602;-90
2023/10/03 12:11:48;;;;;;;7.87;5.93;;;;;;;27.63;nan;99714.63;5025910;28;20820;-90